sensor_id;sensor_type;location;lat;lon;timestamp;pressure;altitude;pressure_sealevel;temperature;humidity
41636;BME280;27623;51.966;4.602;2023-03-14T00:00:53;64446.06;;;11.90;84.76
41636;BME280;27623;51.966;4.602;2023-03-14T00:03:19;64449.50;;;11.96;84.58
41636;BME280;27623;51.966;4.602;2023-03-14T00:05:44;64434.97;;;11.70;85.79
41636;BME280;27623;51.966;4.602;2023-03-14T00:08:09;64399.78;;;11.71;86.93
41636;BME280;27623;51.966;4.602;2023-03-14T00:10:36;64414.34;;;11.75;85.77
41636;BME280;27623;51.966;4.602;2023-03-14T00:13:02;64384.16;;;11.59;86.29
41636;BME280;27623;51.966;4.602;2023-03-14T00:15:27;64415.50;;;11.62;86.80
41636;BME280;27623;51.966;4.602;2023-03-14T00:17:52;64385.56;;;11.65;86.51
41636;BME280;27623;51.966;4.602;2023-03-14T00:20:18;64370.66;;;11.56;88.55
41636;BME280;27623;51.966;4.602;2023-03-14T00:22:43;64388.72;;;11.51;88.66
41636;BME280;27623;51.966;4.602;2023-03-14T00:25:10;64361.38;;;11.54;90.21
41636;BME280;27623;51.966;4.602;2023-03-14T00:27:36;64356.84;;;11.48;91.08
41636;BME280;27623;51.966;4.602;2023-03-14T00:30:05;64345.59;;;11.32;91.98
41636;BME280;27623;51.966;4.602;2023-03-14T00:32:33;64359.81;;;11.31;92.76
41636;BME280;27623;51.966;4.602;2023-03-14T00:34:59;64360.00;;;11.27;93.71
41636;BME280;27623;51.966;4.602;2023-03-14T00:37:26;64374.03;;;11.30;95.24
41636;BME280;27623;51.966;4.602;2023-03-14T00:39:51;64342.34;;;11.29;97.28
41636;BME280;27623;51.966;4.602;2023-03-14T00:42:17;64340.75;;;11.21;96.54
41636;BME280;27623;51.966;4.602;2023-03-14T00:44:42;64365.81;;;11.37;97.32
41636;BME280;27623;51.966;4.602;2023-03-14T00:47:07;64358.19;;;11.23;97.06
41636;BME280;27623;51.966;4.602;2023-03-14T00:49:35;64341.28;;;11.21;97.68
41636;BME280;27623;51.966;4.602;2023-03-14T00:52:00;64360.06;;;11.20;98.23
41636;BME280;27623;51.966;4.602;2023-03-14T00:54:26;64317.66;;;11.04;98.37
41636;BME280;27623;51.966;4.602;2023-03-14T00:56:51;64366.06;;;11.18;98.73
41636;BME280;27623;51.966;4.602;2023-03-14T00:59:17;64346.03;;;11.09;99.73
41636;BME280;27623;51.966;4.602;2023-03-14T01:01:42;64349.88;;;11.13;99.35
41636;BME280;27623;51.966;4.602;2023-03-14T01:04:08;64349.13;;;11.10;99.86
41636;BME280;27623;51.966;4.602;2023-03-14T01:06:33;64303.28;;;10.95;100.00
41636;BME280;27623;51.966;4.602;2023-03-14T01:08:59;64294.72;;;10.97;100.00
41636;BME280;27623;51.966;4.602;2023-03-14T01:11:33;64314.56;;;11.03;100.00
41636;BME280;27623;51.966;4.602;2023-03-14T01:13:59;64319.50;;;11.01;100.00
41636;BME280;27623;51.966;4.602;2023-03-14T01:16:27;64309.13;;;10.98;100.00
41636;BME280;27623;51.966;4.602;2023-03-14T01:18:53;64331.69;;;11.00;100.00
41636;BME280;27623;51.966;4.602;2023-03-14T01:23:46;64316.81;;;10.77;100.00
41636;BME280;27623;51.966;4.602;2023-03-14T01:26:15;64296.63;;;10.73;100.00
41636;BME280;27623;51.966;4.602;2023-03-14T01:28:41;64316.78;;;10.84;100.00
41636;BME280;27623;51.966;4.602;2023-03-14T01:31:08;64310.28;;;10.78;100.00
41636;BME280;27623;51.966;4.602;2023-03-14T01:33:34;64277.81;;;10.95;100.00
41636;BME280;27623;51.966;4.602;2023-03-14T01:36:00;64325.34;;;10.90;100.00
41636;BME280;27623;51.966;4.602;2023-03-14T01:38:28;64330.44;;;10.90;100.00
41636;BME280;27623;51.966;4.602;2023-03-14T01:40:56;64319.13;;;10.96;100.00
41636;BME280;27623;51.966;4.602;2023-03-14T01:43:22;64314.94;;;10.94;100.00
41636;BME280;27623;51.966;4.602;2023-03-14T01:48:43;64346.03;;;11.09;100.00
41636;BME280;27623;51.966;4.602;2023-03-14T01:51:14;64302.72;;;11.02;100.00
41636;BME280;27623;51.966;4.602;2023-03-14T01:53:41;64301.31;;;10.89;100.00
41636;BME280;27623;51.966;4.602;2023-03-14T01:56:09;64321.34;;;10.84;100.00
41636;BME280;27623;51.966;4.602;2023-03-14T01:58:37;64310.25;;;10.85;100.00
41636;BME280;27623;51.966;4.602;2023-03-14T02:01:05;64304.59;;;10.92;100.00
41636;BME280;27623;51.966;4.602;2023-03-14T02:03:36;64292.56;;;10.95;100.00
41636;BME280;27623;51.966;4.602;2023-03-14T02:06:06;64317.72;;;10.83;100.00
41636;BME280;27623;51.966;4.602;2023-03-14T02:08:33;64313.34;;;10.86;100.00
41636;BME280;27623;51.966;4.602;2023-03-14T02:10:58;64345.94;;;10.85;100.00
41636;BME280;27623;51.966;4.602;2023-03-14T02:13:24;64306.78;;;10.87;100.00
41636;BME280;27623;51.966;4.602;2023-03-14T02:15:50;64296.63;;;10.80;100.00
41636;BME280;27623;51.966;4.602;2023-03-14T02:18:16;64315.91;;;10.79;100.00
41636;BME280;27623;51.966;4.602;2023-03-14T02:21:06;64259.50;;;10.74;100.00
41636;BME280;27623;51.966;4.602;2023-03-14T02:26:26;64292.47;;;10.64;100.00
41636;BME280;27623;51.966;4.602;2023-03-14T02:28:56;64277.00;;;10.61;100.00
41636;BME280;27623;51.966;4.602;2023-03-14T02:31:22;64305.53;;;10.76;100.00
41636;BME280;27623;51.966;4.602;2023-03-14T02:33:47;64278.78;;;10.73;100.00
41636;BME280;27623;51.966;4.602;2023-03-14T02:36:14;64262.66;;;10.46;100.00
41636;BME280;27623;51.966;4.602;2023-03-14T02:41:23;64272.25;;;10.66;100.00
41636;BME280;27623;51.966;4.602;2023-03-14T02:43:49;64302.84;;;10.66;100.00
41636;BME280;27623;51.966;4.602;2023-03-14T02:46:18;64262.31;;;10.48;100.00
41636;BME280;27623;51.966;4.602;2023-03-14T02:51:13;64282.84;;;10.57;100.00
41636;BME280;27623;51.966;4.602;2023-03-14T02:53:39;64299.78;;;10.59;100.00
41636;BME280;27623;51.966;4.602;2023-03-14T02:56:07;64289.59;;;10.52;100.00
41636;BME280;27623;51.966;4.602;2023-03-14T02:58:35;64258.34;;;10.35;100.00
41636;BME280;27623;51.966;4.602;2023-03-14T03:01:01;64257.25;;;10.33;100.00
41636;BME280;27623;51.966;4.602;2023-03-14T03:03:26;64259.56;;;10.45;100.00
41636;BME280;27623;51.966;4.602;2023-03-14T03:05:53;64276.13;;;10.56;100.00
41636;BME280;27623;51.966;4.602;2023-03-14T03:08:20;64246.28;;;10.45;100.00
41636;BME280;27623;51.966;4.602;2023-03-14T03:10:46;64259.06;;;10.38;100.00
41636;BME280;27623;51.966;4.602;2023-03-14T03:13:11;64256.13;;;10.40;100.00
41636;BME280;27623;51.966;4.602;2023-03-14T03:15:37;64279.59;;;10.47;100.00
41636;BME280;27623;51.966;4.602;2023-03-14T03:18:03;64211.94;;;10.34;100.00
41636;BME280;27623;51.966;4.602;2023-03-14T03:20:28;64293.97;;;10.49;100.00
41636;BME280;27623;51.966;4.602;2023-03-14T03:22:53;64289.59;;;10.52;100.00
41636;BME280;27623;51.966;4.602;2023-03-14T03:25:19;64267.88;;;10.62;100.00
41636;BME280;27623;51.966;4.602;2023-03-14T03:27:44;64268.28;;;10.53;100.00
41636;BME280;27623;51.966;4.602;2023-03-14T03:30:10;64287.22;;;10.54;100.00
41636;BME280;27623;51.966;4.602;2023-03-14T03:32:36;64280.50;;;10.53;100.00
41636;BME280;27623;51.966;4.602;2023-03-14T03:35:03;64289.72;;;10.68;100.00
41636;BME280;27623;51.966;4.602;2023-03-14T03:37:32;64288.28;;;10.62;100.00
41636;BME280;27623;51.966;4.602;2023-03-14T03:39:58;64281.16;;;10.70;100.00
41636;BME280;27623;51.966;4.602;2023-03-14T03:42:24;64277.75;;;10.50;100.00
41636;BME280;27623;51.966;4.602;2023-03-14T03:44:49;64308.13;;;10.62;100.00
41636;BME280;27623;51.966;4.602;2023-03-14T03:47:15;64256.66;;;10.54;100.00
41636;BME280;27623;51.966;4.602;2023-03-14T03:49:41;64270.28;;;10.53;100.00
41636;BME280;27623;51.966;4.602;2023-03-14T03:52:06;64283.53;;;10.60;100.00
41636;BME280;27623;51.966;4.602;2023-03-14T03:54:31;64296.69;;;10.51;100.00
41636;BME280;27623;51.966;4.602;2023-03-14T03:56:57;64267.38;;;10.55;100.00
41636;BME280;27623;51.966;4.602;2023-03-14T03:59:22;64253.91;;;10.52;100.00
41636;BME280;27623;51.966;4.602;2023-03-14T04:01:48;64269.91;;;10.62;100.00
41636;BME280;27623;51.966;4.602;2023-03-14T04:04:13;64265.56;;;10.51;100.00
41636;BME280;27623;51.966;4.602;2023-03-14T04:06:39;64250.66;;;10.49;100.00
41636;BME280;27623;51.966;4.602;2023-03-14T04:09:07;64271.53;;;10.63;100.00
41636;BME280;27623;51.966;4.602;2023-03-14T04:11:32;64296.28;;;10.67;100.00
41636;BME280;27623;51.966;4.602;2023-03-14T04:13:58;64286.47;;;10.58;100.00
41636;BME280;27623;51.966;4.602;2023-03-14T04:16:24;64295.41;;;10.55;100.00
41636;BME280;27623;51.966;4.602;2023-03-14T04:18:50;64323.75;;;10.67;100.00
41636;BME280;27623;51.966;4.602;2023-03-14T04:21:16;64272.13;;;10.43;100.00
41636;BME280;27623;51.966;4.602;2023-03-14T04:23:42;64293.59;;;10.51;100.00
41636;BME280;27623;51.966;4.602;2023-03-14T04:26:08;64277.41;;;10.45;100.00
41636;BME280;27623;51.966;4.602;2023-03-14T04:28:33;64277.03;;;10.47;100.00
41636;BME280;27623;51.966;4.602;2023-03-14T04:31:07;64230.50;;;10.37;100.00
41636;BME280;27623;51.966;4.602;2023-03-14T04:33:32;64262.31;;;10.41;100.00
41636;BME280;27623;51.966;4.602;2023-03-14T04:35:58;64244.84;;;10.46;100.00
41636;BME280;27623;51.966;4.602;2023-03-14T04:38:23;64240.88;;;10.32;100.00
41636;BME280;27623;51.966;4.602;2023-03-14T04:40:49;64251.63;;;10.12;100.00
41636;BME280;27623;51.966;4.602;2023-03-14T04:43:14;64241.06;;;10.28;100.00
41636;BME280;27623;51.966;4.602;2023-03-14T04:45:45;64238.91;;;10.12;100.00
41636;BME280;27623;51.966;4.602;2023-03-14T04:48:11;64217.63;;;10.20;100.00
41636;BME280;27623;51.966;4.602;2023-03-14T04:50:37;64232.34;;;10.20;100.00
41636;BME280;27623;51.966;4.602;2023-03-14T04:53:03;64188.56;;;10.05;100.00
41636;BME280;27623;51.966;4.602;2023-03-14T04:55:28;64231.28;;;10.05;100.00
41636;BME280;27623;51.966;4.602;2023-03-14T04:57:53;64249.09;;;10.12;100.00
41636;BME280;27623;51.966;4.602;2023-03-14T05:00:19;64242.56;;;9.98;100.00
41636;BME280;27623;51.966;4.602;2023-03-14T05:02:45;64238.03;;;9.99;100.00
41636;BME280;27623;51.966;4.602;2023-03-14T05:05:10;64236.19;;;10.02;100.00
41636;BME280;27623;51.966;4.602;2023-03-14T05:07:35;64229.63;;;10.10;100.00
41636;BME280;27623;51.966;4.602;2023-03-14T05:10:01;64230.38;;;10.06;100.00
41636;BME280;27623;51.966;4.602;2023-03-14T05:12:27;64235.28;;;10.11;100.00
41636;BME280;27623;51.966;4.602;2023-03-14T05:14:52;64222.38;;;10.01;100.00
41636;BME280;27623;51.966;4.602;2023-03-14T05:17:19;64230.00;;;10.01;100.00
41636;BME280;27623;51.966;4.602;2023-03-14T05:19:47;64218.78;;;9.86;100.00
41636;BME280;27623;51.966;4.602;2023-03-14T05:22:13;64218.03;;;9.90;100.00
41636;BME280;27623;51.966;4.602;2023-03-14T05:24:39;64181.56;;;9.63;100.00
41636;BME280;27623;51.966;4.602;2023-03-14T05:27:04;64209.41;;;9.53;100.00
41636;BME280;27623;51.966;4.602;2023-03-14T05:29:30;64150.53;;;9.55;100.00
41636;BME280;27623;51.966;4.602;2023-03-14T05:31:55;64152.50;;;9.62;100.00
41636;BME280;27623;51.966;4.602;2023-03-14T05:34:21;64178.13;;;9.64;100.00
41636;BME280;27623;51.966;4.602;2023-03-14T05:36:46;64206.97;;;9.77;100.00
41636;BME280;27623;51.966;4.602;2023-03-14T05:39:12;64220.22;;;9.92;100.00
41636;BME280;27623;51.966;4.602;2023-03-14T05:41:39;64218.41;;;9.81;100.00
41636;BME280;27623;51.966;4.602;2023-03-14T05:44:05;64189.41;;;9.51;100.00
41636;BME280;27623;51.966;4.602;2023-03-14T05:46:30;64203.91;;;9.70;100.00
41636;BME280;27623;51.966;4.602;2023-03-14T05:48:59;64203.00;;;9.64;100.00
41636;BME280;27623;51.966;4.602;2023-03-14T05:51:25;64181.94;;;9.68;100.00
41636;BME280;27623;51.966;4.602;2023-03-14T05:53:52;64176.84;;;9.68;100.00
41636;BME280;27623;51.966;4.602;2023-03-14T05:56:18;64213.72;;;9.72;100.00
41636;BME280;27623;51.966;4.602;2023-03-14T05:58:43;64206.63;;;9.72;100.00
41636;BME280;27623;51.966;4.602;2023-03-14T06:01:09;64227.88;;;9.78;100.00
41636;BME280;27623;51.966;4.602;2023-03-14T06:03:35;64200.09;;;9.73;100.00
41636;BME280;27623;51.966;4.602;2023-03-14T06:06:00;64215.19;;;9.71;100.00
41636;BME280;27623;51.966;4.602;2023-03-14T06:08:26;64164.09;;;9.75;100.00
41636;BME280;27623;51.966;4.602;2023-03-14T06:10:52;64218.44;;;9.74;100.00
41636;BME280;27623;51.966;4.602;2023-03-14T06:13:18;64181.38;;;9.60;100.00
41636;BME280;27623;51.966;4.602;2023-03-14T06:15:44;64144.72;;;9.52;100.00
41636;BME280;27623;51.966;4.602;2023-03-14T06:18:09;64198.09;;;9.59;100.00
41636;BME280;27623;51.966;4.602;2023-03-14T06:20:38;64191.03;;;9.60;100.00
41636;BME280;27623;51.966;4.602;2023-03-14T06:23:05;64169.78;;;9.54;100.00
41636;BME280;27623;51.966;4.602;2023-03-14T06:25:32;64208.09;;;9.57;100.00
41636;BME280;27623;51.966;4.602;2023-03-14T06:27:58;64175.22;;;9.59;100.00
41636;BME280;27623;51.966;4.602;2023-03-14T06:30:23;64170.84;;;9.62;100.00
41636;BME280;27623;51.966;4.602;2023-03-14T06:32:49;64175.94;;;9.70;100.00
41636;BME280;27623;51.966;4.602;2023-03-14T06:35:14;64156.69;;;9.56;100.00
41636;BME280;27623;51.966;4.602;2023-03-14T06:37:40;64182.66;;;9.57;100.00
41636;BME280;27623;51.966;4.602;2023-03-14T06:40:06;64180.66;;;9.57;100.00
41636;BME280;27623;51.966;4.602;2023-03-14T06:42:32;64157.25;;;9.50;100.00
41636;BME280;27623;51.966;4.602;2023-03-14T06:44:58;64147.63;;;9.43;100.00
41636;BME280;27623;51.966;4.602;2023-03-14T06:47:24;64149.28;;;9.45;100.00
41636;BME280;27623;51.966;4.602;2023-03-14T06:49:49;64158.72;;;9.42;100.00
41636;BME280;27623;51.966;4.602;2023-03-14T06:52:14;64166.16;;;9.39;100.00
41636;BME280;27623;51.966;4.602;2023-03-14T06:54:40;64173.59;;;9.51;100.00
41636;BME280;27623;51.966;4.602;2023-03-14T06:57:06;64155.63;;;9.41;100.00
41636;BME280;27623;51.966;4.602;2023-03-14T06:59:31;64169.78;;;9.40;100.00
41636;BME280;27623;51.966;4.602;2023-03-14T07:01:57;64151.28;;;9.37;100.00
41636;BME280;27623;51.966;4.602;2023-03-14T07:04:22;64129.28;;;9.43;100.00
41636;BME280;27623;51.966;4.602;2023-03-14T07:06:50;64148.00;;;9.41;100.00
41636;BME280;27623;51.966;4.602;2023-03-14T07:09:16;64158.72;;;9.42;100.00
41636;BME280;27623;51.966;4.602;2023-03-14T07:11:44;64170.16;;;9.38;100.00
41636;BME280;27623;51.966;4.602;2023-03-14T07:14:09;64149.09;;;9.42;100.00
41636;BME280;27623;51.966;4.602;2023-03-14T07:16:35;64164.72;;;9.47;100.00
41636;BME280;27623;51.966;4.602;2023-03-14T07:19:01;64146.91;;;9.40;100.00
41636;BME280;27623;51.966;4.602;2023-03-14T07:21:27;64166.72;;;9.40;100.00
41636;BME280;27623;51.966;4.602;2023-03-14T07:23:53;64165.44;;;9.50;100.00
41636;BME280;27623;51.966;4.602;2023-03-14T07:26:19;64164.53;;;9.38;100.00
41636;BME280;27623;51.966;4.602;2023-03-14T07:28:44;64122.97;;;9.32;100.00
41636;BME280;27623;51.966;4.602;2023-03-14T07:31:10;64161.09;;;9.39;100.00
41636;BME280;27623;51.966;4.602;2023-03-14T07:33:35;64166.34;;;9.49;100.00
41636;BME280;27623;51.966;4.602;2023-03-14T07:36:00;64165.81;;;9.34;100.00
41636;BME280;27623;51.966;4.602;2023-03-14T07:38:26;64173.06;;;9.43;100.00
41636;BME280;27623;51.966;4.602;2023-03-14T07:40:58;64167.44;;;9.43;100.00
41636;BME280;27623;51.966;4.602;2023-03-14T07:43:24;64141.69;;;9.30;100.00
41636;BME280;27623;51.966;4.602;2023-03-14T07:45:50;64144.03;;;9.28;100.00
41636;BME280;27623;51.966;4.602;2023-03-14T07:48:15;64181.09;;;9.34;100.00
41636;BME280;27623;51.966;4.602;2023-03-14T07:50:40;64145.84;;;9.32;100.00
41636;BME280;27623;51.966;4.602;2023-03-14T07:53:06;64172.91;;;9.34;100.00
41636;BME280;27623;51.966;4.602;2023-03-14T07:55:34;64147.47;;;9.34;100.00
41636;BME280;27623;51.966;4.602;2023-03-14T07:57:59;64122.59;;;9.34;100.00
41636;BME280;27623;51.966;4.602;2023-03-14T08:00:25;64178.34;;;9.32;100.00
41636;BME280;27623;51.966;4.602;2023-03-14T08:02:50;64142.03;;;9.21;100.00
41636;BME280;27623;51.966;4.602;2023-03-14T08:05:16;64145.84;;;9.25;100.00
41636;BME280;27623;51.966;4.602;2023-03-14T08:07:41;64149.69;;;9.14;100.00
41636;BME280;27623;51.966;4.602;2023-03-14T08:10:08;64114.13;;;9.07;100.00
41636;BME280;27623;51.966;4.602;2023-03-14T08:12:33;64111.56;;;9.14;100.00
41636;BME280;27623;51.966;4.602;2023-03-14T08:14:59;64121.75;;;9.07;100.00
41636;BME280;27623;51.966;4.602;2023-03-14T08:17:24;64115.56;;;9.13;100.00
41636;BME280;27623;51.966;4.602;2023-03-14T08:19:50;64140.59;;;9.29;100.00
41636;BME280;27623;51.966;4.602;2023-03-14T08:22:15;64158.75;;;9.20;100.00
41636;BME280;27623;51.966;4.602;2023-03-14T08:24:41;64119.34;;;9.17;100.00
41636;BME280;27623;51.966;4.602;2023-03-14T08:27:07;64116.06;;;9.21;100.00
41636;BME280;27623;51.966;4.602;2023-03-14T08:29:32;64139.50;;;9.21;100.00
41636;BME280;27623;51.966;4.602;2023-03-14T08:31:58;64114.84;;;9.03;100.00
41636;BME280;27623;51.966;4.602;2023-03-14T08:34:23;64093.63;;;8.90;100.00
41636;BME280;27623;51.966;4.602;2023-03-14T08:36:49;64132.44;;;9.01;100.00
41636;BME280;27623;51.966;4.602;2023-03-14T08:39:15;64103.44;;;8.92;100.00
41636;BME280;27623;51.966;4.602;2023-03-14T08:41:40;64096.31;;;9.00;100.00
41636;BME280;27623;51.966;4.602;2023-03-14T08:44:08;64116.69;;;8.93;100.00
41636;BME280;27623;51.966;4.602;2023-03-14T08:46:34;64086.75;;;8.79;100.00
41636;BME280;27623;51.966;4.602;2023-03-14T08:49:00;64054.47;;;8.61;100.00
41636;BME280;27623;51.966;4.602;2023-03-14T08:51:25;64081.69;;;8.65;100.00
41636;BME280;27623;51.966;4.602;2023-03-14T08:53:50;64124.66;;;8.77;100.00
41636;BME280;27623;51.966;4.602;2023-03-14T08:56:19;64090.38;;;8.80;100.00
41636;BME280;27623;51.966;4.602;2023-03-14T08:58:44;64092.00;;;8.82;100.00
41636;BME280;27623;51.966;4.602;2023-03-14T09:01:10;64103.44;;;8.85;100.00
41636;BME280;27623;51.966;4.602;2023-03-14T09:03:38;64059.34;;;8.87;100.00
41636;BME280;27623;51.966;4.602;2023-03-14T09:06:05;64115.22;;;8.94;100.00
41636;BME280;27623;51.966;4.602;2023-03-14T09:08:31;64085.09;;;8.85;100.00
41636;BME280;27623;51.966;4.602;2023-03-14T09:10:57;64111.03;;;9.00;100.00
41636;BME280;27623;51.966;4.602;2023-03-14T09:13:23;64121.88;;;9.17;100.00
41636;BME280;27623;51.966;4.602;2023-03-14T09:15:53;64148.56;;;9.27;100.00
41636;BME280;27623;51.966;4.602;2023-03-14T09:18:18;64158.19;;;9.27;100.00
41636;BME280;27623;51.966;4.602;2023-03-14T09:20:44;64186.50;;;9.39;100.00
41636;BME280;27623;51.966;4.602;2023-03-14T09:23:09;64162.53;;;9.45;100.00
41636;BME280;27623;51.966;4.602;2023-03-14T09:25:34;64165.81;;;9.41;100.00
41636;BME280;27623;51.966;4.602;2023-03-14T09:28:00;64145.06;;;9.57;100.00
41636;BME280;27623;51.966;4.602;2023-03-14T09:30:25;64174.34;;;9.47;100.00
41636;BME280;27623;51.966;4.602;2023-03-14T09:32:51;64159.25;;;9.49;100.00
41636;BME280;27623;51.966;4.602;2023-03-14T09:35:16;64166.16;;;9.39;100.00
41636;BME280;27623;51.966;4.602;2023-03-14T09:37:41;64148.56;;;9.27;100.00
41636;BME280;27623;51.966;4.602;2023-03-14T09:40:15;64165.09;;;9.31;99.64
41636;BME280;27623;51.966;4.602;2023-03-14T09:42:41;64137.69;;;9.17;98.23
41636;BME280;27623;51.966;4.602;2023-03-14T09:45:12;64137.88;;;9.20;100.00
41636;BME280;27623;51.966;4.602;2023-03-14T09:47:43;64161.09;;;9.25;100.00
41636;BME280;27623;51.966;4.602;2023-03-14T09:50:13;64174.38;;;9.18;100.00
41636;BME280;27623;51.966;4.602;2023-03-14T09:52:42;64119.19;;;9.07;100.00
41636;BME280;27623;51.966;4.602;2023-03-14T09:55:19;64157.28;;;9.21;100.00
41636;BME280;27623;51.966;4.602;2023-03-14T09:57:47;64126.06;;;9.25;100.00
41636;BME280;27623;51.966;4.602;2023-03-14T10:00:23;64161.78;;;9.49;100.00
41636;BME280;27623;51.966;4.602;2023-03-14T10:02:55;64198.81;;;9.62;100.00
41636;BME280;27623;51.966;4.602;2023-03-14T10:05:23;64202.09;;;9.73;100.00
41636;BME280;27623;51.966;4.602;2023-03-14T10:07:50;64184.28;;;9.65;99.94
41636;BME280;27623;51.966;4.602;2023-03-14T10:12:45;64199.75;;;9.54;99.06
41636;BME280;27623;51.966;4.602;2023-03-14T10:15:13;64162.34;;;9.43;96.42
41636;BME280;27623;51.966;4.602;2023-03-14T10:17:47;64173.44;;;9.41;98.45
41636;BME280;27623;51.966;4.602;2023-03-14T10:20:27;64179.41;;;9.47;98.57
41636;BME280;27623;51.966;4.602;2023-03-14T10:22:57;64146.94;;;9.33;96.89
41636;BME280;27623;51.966;4.602;2023-03-14T10:25:32;64189.06;;;9.39;94.58
41636;BME280;27623;51.966;4.602;2023-03-14T10:27:59;64162.16;;;9.47;92.62
41636;BME280;27623;51.966;4.602;2023-03-14T10:30:38;64193.19;;;9.62;95.29
41636;BME280;27623;51.966;4.602;2023-03-14T10:33:11;64214.81;;;9.65;95.76
41636;BME280;27623;51.966;4.602;2023-03-14T10:35:36;64191.03;;;9.60;92.31
41636;BME280;27623;51.966;4.602;2023-03-14T10:38:03;64178.47;;;9.70;90.22
41636;BME280;27623;51.966;4.602;2023-03-14T10:40:34;64210.44;;;9.69;86.89
41636;BME280;27623;51.966;4.602;2023-03-14T10:43:05;64217.19;;;9.70;89.88
41636;BME280;27623;51.966;4.602;2023-03-14T10:45:42;64162.16;;;9.47;86.85
41636;BME280;27623;51.966;4.602;2023-03-14T10:50:55;64185.06;;;9.47;84.25
41636;BME280;27623;51.966;4.602;2023-03-14T10:53:21;64173.44;;;9.48;84.02
41636;BME280;27623;51.966;4.602;2023-03-14T10:55:50;64147.47;;;9.41;83.95
41636;BME280;27623;51.966;4.602;2023-03-14T10:58:28;64149.81;;;9.52;83.88
41636;BME280;27623;51.966;4.602;2023-03-14T11:03:32;64217.72;;;9.71;84.97
41636;BME280;27623;51.966;4.602;2023-03-14T11:06:12;64200.44;;;9.78;81.79
41636;BME280;27623;51.966;4.602;2023-03-14T11:08:54;64212.94;;;9.97;80.64
41636;BME280;27623;51.966;4.602;2023-03-14T11:11:24;64225.44;;;10.23;82.23
41636;BME280;27623;51.966;4.602;2023-03-14T11:14:16;64272.47;;;10.55;77.04
41636;BME280;27623;51.966;4.602;2023-03-14T11:19:25;64353.56;;;10.92;77.06
41636;BME280;27623;51.966;4.602;2023-03-14T11:27:22;64467.00;;;12.05;69.31
41636;BME280;27623;51.966;4.602;2023-03-14T11:35:24;64587.94;;;12.84;62.18
41636;BME280;27623;51.966;4.602;2023-03-14T11:38:19;64587.88;;;12.98;59.37
41636;BME280;27623;51.966;4.602;2023-03-14T11:40:39;64604.06;;;13.18;57.07
41636;BME280;27623;51.966;4.602;2023-03-14T11:45:40;64646.56;;;13.48;51.12
41636;BME280;27623;51.966;4.602;2023-03-14T11:50:52;64698.72;;;13.77;50.13
41636;BME280;27623;51.966;4.602;2023-03-14T11:53:30;64618.78;;;13.46;46.92
41636;BME280;27623;51.966;4.602;2023-03-14T11:55:59;64710.19;;;13.95;50.00
41636;BME280;27623;51.966;4.602;2023-03-14T11:58:33;64726.72;;;14.20;48.43
41636;BME280;27623;51.966;4.602;2023-03-14T12:01:07;64715.72;;;14.24;51.50
41636;BME280;27623;51.966;4.602;2023-03-14T12:03:56;64701.41;;;13.94;47.30
41636;BME280;27623;51.966;4.602;2023-03-14T12:08:59;64639.56;;;13.58;46.24
41636;BME280;27623;51.966;4.602;2023-03-14T12:11:48;64629.19;;;13.49;47.15
41636;BME280;27623;51.966;4.602;2023-03-14T12:14:21;64569.94;;;13.05;47.64
41636;BME280;27623;51.966;4.602;2023-03-14T12:16:49;64554.25;;;13.00;47.98
41636;BME280;27623;51.966;4.602;2023-03-14T12:21:50;64553.72;;;12.93;49.41
41636;BME280;27623;51.966;4.602;2023-03-14T12:24:28;64523.66;;;12.72;50.07
41636;BME280;27623;51.966;4.602;2023-03-14T12:26:57;64556.56;;;12.67;48.00
41636;BME280;27623;51.966;4.602;2023-03-14T12:29:24;64561.31;;;12.69;47.78
41636;BME280;27623;51.966;4.602;2023-03-14T12:32:21;64526.94;;;12.75;47.66
41636;BME280;27623;51.966;4.602;2023-03-14T12:34:47;64531.88;;;12.80;47.05
41636;BME280;27623;51.966;4.602;2023-03-14T12:37:25;64584.75;;;13.05;47.36
41636;BME280;27623;51.966;4.602;2023-03-14T12:45:36;64665.34;;;13.54;46.36
41636;BME280;27623;51.966;4.602;2023-03-14T12:48:08;64602.16;;;13.43;47.59
41636;BME280;27623;51.966;4.602;2023-03-14T12:50:46;64675.34;;;13.72;46.32
41636;BME280;27623;51.966;4.602;2023-03-14T13:01:27;64839.53;;;15.41;41.61
41636;BME280;27623;51.966;4.602;2023-03-14T13:03:56;64850.97;;;15.35;38.65
41636;BME280;27623;51.966;4.602;2023-03-14T13:06:54;64806.13;;;15.18;37.95
41636;BME280;27623;51.966;4.602;2023-03-14T13:11:55;64895.44;;;15.55;39.75
41636;BME280;27623;51.966;4.602;2023-03-14T13:14:22;64896.84;;;15.68;39.52
41636;BME280;27623;51.966;4.602;2023-03-14T13:16:48;64919.84;;;15.90;36.95
41636;BME280;27623;51.966;4.602;2023-03-14T13:19:20;64861.00;;;15.78;36.11
41636;BME280;27623;51.966;4.602;2023-03-14T13:21:50;64788.66;;;14.94;36.24
41636;BME280;27623;51.966;4.602;2023-03-14T13:24:26;64722.06;;;14.42;37.50
41636;BME280;27623;51.966;4.602;2023-03-14T13:26:54;64665.72;;;13.97;38.34
41636;BME280;27623;51.966;4.602;2023-03-14T13:29:22;64628.03;;;13.55;37.78
41636;BME280;27623;51.966;4.602;2023-03-14T13:31:53;64585.03;;;13.24;39.00
41636;BME280;27623;51.966;4.602;2023-03-14T13:34:19;64548.03;;;12.99;41.10
41636;BME280;27623;51.966;4.602;2023-03-14T13:36:46;64534.78;;;12.85;42.79
41636;BME280;27623;51.966;4.602;2023-03-14T13:39:18;64503.63;;;12.63;44.89
41636;BME280;27623;51.966;4.602;2023-03-14T13:41:45;64542.22;;;12.89;42.05
41636;BME280;27623;51.966;4.602;2023-03-14T13:46:50;64485.31;;;12.72;41.33
41636;BME280;27623;51.966;4.602;2023-03-14T13:49:22;64489.22;;;12.61;41.55
41636;BME280;27623;51.966;4.602;2023-03-14T13:51:49;64448.41;;;12.40;41.36
41636;BME280;27623;51.966;4.602;2023-03-14T13:54:19;64466.25;;;12.47;41.66
41636;BME280;27623;51.966;4.602;2023-03-14T13:56:45;64480.31;;;12.51;40.61
41636;BME280;27623;51.966;4.602;2023-03-14T13:59:24;64488.19;;;12.46;43.08
41636;BME280;27623;51.966;4.602;2023-03-14T14:01:54;64530.91;;;12.43;42.71
41636;BME280;27623;51.966;4.602;2023-03-14T14:04:23;64497.72;;;12.29;43.45